Time;durP1;ratioP1;P1;durP2;ratioP2;P2;SDS_P1;SDS_P2;PMS_P1;PMS_P2;Temp;Humidity;BMP_temperature;BMP_pressure;BME280_temperature;BME280_humidity;BME280_pressure;Samples;Min_cycle;Max_cycle;Signal;HPM_P1;HPM_P2
2022/01/15 00:04:52;;;;;;;10.30;2.80;;;1.80;99.90;;;;;;10298811;28;20198;-79
2022/01/15 00:10:20;;;;;;;8.30;2.70;;;1.70;99.90;;;;;;10298662;28;20234;-79
2022/01/15 00:15:49;;;;;;;7.97;3.20;;;1.70;99.90;;;;;;10323874;28;20274;-78
2022/01/15 00:21:17;;;;;;;10.13;3.10;;;1.70;99.90;;;;;;10339045;28;20215;-80
2022/01/15 00:26:39;;;;;;;9.00;2.70;;;1.70;99.90;;;;;;10351548;28;20202;-80
2022/01/15 00:32:03;;;;;;;9.80;3.07;;;1.60;99.90;;;;;;10365695;28;20269;-81
2022/01/15 00:37:25;;;;;;;9.63;2.47;;;1.60;99.90;;;;;;10351792;28;20201;-80
2022/01/15 00:42:47;;;;;;;5.87;2.00;;;1.60;99.90;;;;;;10351370;28;20209;-80
2022/01/15 00:48:09;;;;;;;10.50;2.80;;;1.60;99.90;;;;;;10307405;28;20226;-83
2022/01/15 00:53:31;;;;;;;10.50;2.40;;;1.50;99.90;;;;;;10312471;28;20195;-81
2022/01/15 00:58:53;;;;;;;8.43;2.43;;;1.50;99.90;;;;;;10297403;28;20253;-81
2022/01/15 01:04:15;;;;;;;7.37;2.00;;;1.50;99.90;;;;;;10311235;28;20203;-80
2022/01/15 01:27:04;;;;;;;4.00;1.63;;;1.40;99.90;;;;;;10251547;29;20242;-80
2022/01/15 01:32:39;;;;;;;6.07;1.70;;;1.40;99.90;;;;;;10238142;29;20211;-80
2022/01/15 01:38:12;;;;;;;11.03;1.90;;;1.40;99.90;;;;;;10267599;28;20199;-80
2022/01/15 01:49:01;;;;;;;8.90;2.20;;;1.30;99.90;;;;;;10308596;28;20612;-80
2022/01/15 01:54:23;;;;;;;7.90;2.20;;;1.30;99.90;;;;;;10316251;28;20205;-80
2022/01/15 01:59:45;;;;;;;10.60;1.67;;;1.30;99.90;;;;;;10330011;28;20570;-82
2022/01/15 02:05:09;;;;;;;7.00;1.60;;;1.20;99.90;;;;;;11152171;23;20234;-76
2022/01/15 02:10:34;;;;;;;7.77;2.20;;;1.20;99.90;;;;;;10316693;28;20306;-84
2022/01/15 02:15:58;;;;;;;8.47;1.93;;;1.20;99.90;;;;;;10317320;28;20223;-75
2022/01/15 02:27:09;;;;;;;8.43;2.30;;;1.20;99.90;;;;;;10317660;28;20437;-82
2022/01/15 02:32:32;;;;;;;5.70;1.90;;;1.10;99.90;;;;;;10317438;28;20699;-76
2022/01/15 02:37:54;;;;;;;9.10;2.47;;;1.10;99.90;;;;;;10317032;28;20215;-75
2022/01/15 02:43:20;;;;;;;14.00;2.00;;;1.10;99.90;;;;;;10319582;28;20193;-80
2022/01/15 02:48:42;;;;;;;10.03;2.03;;;1.20;99.90;;;;;;10316354;28;20281;-75
2022/01/15 02:54:05;;;;;;;9.93;2.10;;;1.10;99.90;;;;;;10328240;28;20195;-76
2022/01/15 02:59:27;;;;;;;6.63;2.10;;;1.00;99.90;;;;;;10332377;28;20266;-88
2022/01/15 03:04:49;;;;;;;8.27;1.93;;;1.00;99.90;;;;;;10335299;28;20256;-91
2022/01/15 03:10:12;;;;;;;5.70;1.90;;;1.00;99.90;;;;;;10370656;28;20232;-92
2022/01/15 03:15:34;;;;;;;6.70;1.60;;;1.00;99.90;;;;;;10336589;28;20224;-91
2022/01/15 03:20:57;;;;;;;8.37;1.70;;;0.90;99.90;;;;;;10329404;28;20389;-88
2022/01/15 03:26:20;;;;;;;11.53;2.43;;;1.00;99.90;;;;;;10315973;28;20221;-80
2022/01/15 03:31:42;;;;;;;6.70;1.60;;;0.90;99.90;;;;;;10316447;28;20234;-83
2022/01/15 03:37:05;;;;;;;7.57;1.77;;;0.90;99.90;;;;;;10316247;28;20191;-93
2022/01/15 03:42:27;;;;;;;8.73;1.93;;;0.80;99.90;;;;;;10328873;28;20202;-92
2022/01/15 03:47:49;;;;;;;9.73;1.93;;;0.70;99.90;;;;;;10315688;28;20402;-91
2022/01/15 03:53:10;;;;;;;12.43;2.77;;;0.70;99.90;;;;;;10328179;28;20236;-77
2022/01/15 03:58:33;;;;;;;7.53;2.10;;;0.70;99.90;;;;;;10316982;28;20206;-90
2022/01/15 04:03:55;;;;;;;9.17;2.47;;;0.70;99.90;;;;;;10315771;28;20210;-84
2022/01/15 04:09:18;;;;;;;12.77;2.37;;;0.70;99.90;;;;;;10331146;28;20276;-87
2022/01/15 04:14:40;;;;;;;9.77;2.13;;;0.60;99.90;;;;;;10315283;28;20196;-92
2022/01/15 04:20:04;;;;;;;6.67;1.70;;;0.60;99.90;;;;;;10315096;28;20526;-90
2022/01/15 04:25:27;;;;;;;7.87;2.33;;;0.60;99.90;;;;;;10314744;28;20485;-79
2022/01/15 04:30:49;;;;;;;7.77;2.40;;;0.60;99.90;;;;;;10299199;28;20222;-87
2022/01/15 04:36:11;;;;;;;9.47;1.70;;;0.60;99.90;;;;;;10313204;28;20448;-93
2022/01/15 04:41:34;;;;;;;6.27;2.23;;;0.50;99.90;;;;;;10313953;28;20205;-91
2022/01/15 04:46:56;;;;;;;8.57;2.30;;;0.50;99.90;;;;;;10312918;28;20209;-86
2022/01/15 04:52:18;;;;;;;9.77;2.40;;;0.50;99.90;;;;;;10314902;28;20601;-91
2022/01/15 04:57:42;;;;;;;6.83;2.03;;;0.60;99.90;;;;;;10314147;28;20193;-93
2022/01/15 05:03:04;;;;;;;10.70;2.30;;;0.50;99.90;;;;;;10313582;28;20221;-81
2022/01/15 05:08:26;;;;;;;7.20;2.00;;;0.60;99.90;;;;;;10276793;28;20418;-92
2022/01/15 05:13:49;;;;;;;11.07;2.60;;;;;;;;;;10313658;28;20202;-81
2022/01/15 05:19:12;;;;;;;8.10;2.67;;;0.50;99.90;;;;;;10326363;28;20201;-80
2022/01/15 05:24:34;;;;;;;9.07;2.67;;;0.50;99.90;;;;;;10320128;28;20242;-89
2022/01/15 05:29:56;;;;;;;5.33;1.90;;;0.50;99.90;;;;;;10318950;28;20527;-83
2022/01/15 05:35:18;;;;;;;9.67;2.23;;;0.50;99.90;;;;;;10318700;28;20195;-79
2022/01/15 05:40:41;;;;;;;8.43;1.93;;;0.50;99.90;;;;;;10319072;28;20232;-78
2022/01/15 05:46:03;;;;;;;11.10;2.27;;;0.40;99.90;;;;;;10336013;28;20199;-77
2022/01/15 05:51:29;;;;;;;7.00;2.07;;;0.40;99.90;;;;;;10340891;28;20284;-77
2022/01/15 05:56:51;;;;;;;8.47;2.13;;;0.30;99.90;;;;;;10332293;28;20198;-78
2022/01/15 06:02:16;;;;;;;8.90;2.97;;;0.30;99.90;;;;;;10330989;28;20194;-78
2022/01/15 06:07:38;;;;;;;8.60;2.30;;;0.30;99.90;;;;;;10301831;28;20257;-86
2022/01/15 06:13:00;;;;;;;6.50;2.13;;;0.20;99.90;;;;;;10296201;28;20238;-83
2022/01/15 06:18:22;;;;;;;8.53;2.93;;;0.20;99.90;;;;;;10317648;28;20526;-79
2022/01/15 06:23:44;;;;;;;11.57;3.93;;;0.10;99.90;;;;;;10318334;28;20395;-82
2022/01/15 06:29:06;;;;;;;12.53;3.50;;;0.10;99.90;;;;;;10318755;28;20238;-84
2022/01/15 06:34:28;;;;;;;14.40;3.00;;;0.20;99.90;;;;;;10317884;28;20503;-84
2022/01/15 06:39:50;;;;;;;6.43;2.63;;;0.10;99.90;;;;;;10317925;28;20487;-85
2022/01/15 06:45:13;;;;;;;13.33;3.23;;;0.10;99.90;;;;;;10332782;28;20657;-80
2022/01/15 06:50:37;;;;;;;5.80;2.13;;;0.00;99.90;;;;;;10315935;28;20236;-78
2022/01/15 06:55:59;;;;;;;8.07;2.30;;;0.10;99.90;;;;;;10329951;28;20515;-80
2022/01/15 07:01:23;;;;;;;7.57;3.10;;;0.10;99.90;;;;;;10315861;28;20200;-81
2022/01/15 07:06:45;;;;;;;14.87;3.50;;;0.10;99.90;;;;;;10320567;28;20292;-90
2022/01/15 07:12:07;;;;;;;13.53;4.73;;;0.10;99.90;;;;;;10284508;28;20225;-87
2022/01/15 07:17:29;;;;;;;13.13;4.17;;;0.10;99.90;;;;;;10315816;28;20198;-85
2022/01/15 07:22:52;;;;;;;16.37;3.63;;;0.20;99.90;;;;;;10329214;28;20203;-76
2022/01/15 07:28:14;;;;;;;14.30;5.17;;;0.20;99.90;;;;;;10317165;28;20214;-81
2022/01/15 07:33:36;;;;;;;12.10;4.37;;;0.20;99.90;;;;;;10316976;28;20206;-76
2022/01/15 07:38:58;;;;;;;25.00;5.70;;;0.30;99.90;;;;;;10314750;28;20217;-93
2022/01/15 07:44:20;;;;;;;14.90;3.97;;;0.30;99.90;;;;;;10317112;28;20202;-87
2022/01/15 07:49:42;;;;;;;13.73;4.47;;;0.30;99.90;;;;;;10317198;28;20259;-87
2022/01/15 07:55:05;;;;;;;21.10;5.30;;;0.40;99.90;;;;;;10315512;28;20215;-81
2022/01/15 08:00:34;;;;;;;11.87;3.93;;;0.50;99.90;;;;;;10314139;28;20400;-79
2022/01/15 08:05:57;;;;;;;11.83;4.10;;;0.50;99.90;;;;;;10323894;28;20298;-82
2022/01/15 08:11:19;;;;;;;10.63;4.03;;;0.60;99.90;;;;;;10274352;29;20257;-81
2022/01/15 08:16:41;;;;;;;11.73;4.67;;;0.70;99.90;;;;;;10312078;28;20241;-89
2022/01/15 08:22:03;;;;;;;8.70;4.00;;;0.80;99.90;;;;;;10327013;28;20204;-75
2022/01/15 08:27:24;;;;;;;12.00;4.60;;;0.90;99.90;;;;;;10329186;28;20202;-78
2022/01/15 08:32:47;;;;;;;9.30;3.60;;;1.40;99.90;;;;;;10313793;28;20232;-83
2022/01/15 08:38:09;;;;;;;12.23;4.43;;;3.00;99.90;;;;;;10313418;28;20387;-85
2022/01/15 08:43:31;;;;;;;9.07;4.47;;;4.80;99.90;;;;;;10313281;28;20207;-81
2022/01/15 08:48:53;;;;;;;12.13;3.57;;;6.00;99.90;;;;;;10327373;28;20222;-92
2022/01/15 08:54:15;;;;;;;8.43;3.40;;;6.90;99.90;;;;;;10320408;28;20482;-76
2022/01/15 08:59:38;;;;;;;8.50;4.00;;;7.40;99.90;;;;;;10321745;28;20196;-77
2022/01/15 09:05:00;;;;;;;11.27;4.40;;;7.20;99.90;;;;;;10319614;28;20301;-76
2022/01/15 09:10:24;;;;;;;9.77;3.87;;;6.20;99.90;;;;;;10332882;28;20294;-76
2022/01/15 09:15:47;;;;;;;8.67;4.10;;;5.20;99.90;;;;;;10319910;28;20200;-90
2022/01/15 09:21:09;;;;;;;11.83;3.63;;;4.40;99.90;;;;;;10319498;28;20201;-89
2022/01/15 09:32:29;;;;;;;8.83;4.00;;;3.70;99.90;;;;;;10236191;29;20237;-83
2022/01/15 09:37:52;;;;;;;20.10;8.80;;;3.50;99.90;;;;;;10219644;29;20289;-86
2022/01/15 09:43:15;;;;;;;14.10;5.90;;;3.40;99.90;;;;;;10237008;29;20209;-81
2022/01/15 09:48:39;;;;;;;24.33;9.30;;;3.30;99.90;;;;;;10222439;29;20244;-82
2022/01/15 09:54:02;;;;;;;29.07;9.80;;;3.20;99.90;;;;;;10234882;29;20213;-91
2022/01/15 09:59:24;;;;;;;33.63;10.20;;;3.10;99.90;;;;;;10222306;29;20301;-75
2022/01/15 10:04:46;;;;;;;27.53;9.70;;;3.00;99.90;;;;;;10264276;28;20244;-85
2022/01/15 10:10:19;;;;;;;36.23;13.83;;;3.00;99.90;;;;;;10300855;28;20319;-88
2022/01/15 10:15:43;;;;;;;40.20;13.83;;;3.10;99.90;;;;;;10310969;28;20254;-76
2022/01/15 10:21:23;;;;;;;28.13;10.67;;;3.40;99.90;;;;;;10300982;28;20203;-84
2022/01/15 10:26:44;;;;;;;27.77;11.87;;;3.70;99.90;;;;;;10314543;28;20188;-86
2022/01/15 10:32:13;;;;;;;34.33;12.60;;;3.70;99.90;;;;;;10301206;28;20243;-78
2022/01/15 10:37:56;;;;;;;32.73;11.60;;;3.50;99.90;;;;;;10326108;28;20187;-77
2022/01/15 10:43:35;;;;;;;25.10;9.37;;;3.40;99.90;;;;;;10326660;28;20196;-78
2022/01/15 10:49:24;;;;;;;29.43;11.00;;;3.40;99.90;;;;;;10334446;28;20287;-76
2022/01/15 10:55:15;;;;;;;20.10;8.37;;;3.40;99.90;;;;;;10336334;28;20192;-79
2022/01/15 11:00:53;;;;;;;14.80;5.53;;;3.40;99.90;;;;;;10316944;28;20199;-76
2022/01/15 11:06:37;;;;;;;14.17;4.70;;;3.50;99.90;;;;;;10326776;28;20223;-85
2022/01/15 11:12:00;;;;;;;14.50;4.20;;;3.60;99.90;;;;;;10307986;28;20234;-82
2022/01/15 11:17:22;;;;;;;9.53;3.30;;;3.70;99.90;;;;;;10299033;28;20195;-77
2022/01/15 11:22:47;;;;;;;9.53;3.50;;;3.90;99.90;;;;;;10322121;28;20495;-79
2022/01/15 11:28:09;;;;;;;29.80;6.37;;;4.70;99.90;;;;;;10326239;28;20194;-80
2022/01/15 11:33:34;;;;;;;14.93;3.60;;;5.90;99.90;;;;;;10331494;28;20285;-77
2022/01/15 11:38:58;;;;;;;63.77;9.07;;;6.70;99.90;;;;;;10282488;28;20285;-82
2022/01/15 11:44:39;;;;;;;28.57;11.00;;;7.30;99.90;;;;;;10313214;28;20206;-77
2022/01/15 11:50:20;;;;;;;19.70;6.07;;;7.50;99.90;;;;;;10298714;28;20283;-80
2022/01/15 11:55:43;;;;;;;21.17;8.47;;;7.00;99.90;;;;;;10297776;28;20513;-78
2022/01/15 12:01:05;;;;;;;18.23;4.93;;;6.50;99.90;;;;;;10313270;28;20319;-75
2022/01/15 12:06:28;;;;;;;15.43;4.60;;;6.20;99.90;;;;;;10308441;28;20250;-77
2022/01/15 12:11:52;;;;;;;17.30;4.63;;;6.00;99.90;;;;;;10286284;28;20257;-76
2022/01/15 12:17:31;;;;;;;19.23;6.17;;;5.80;99.90;;;;;;10301529;28;20192;-85
2022/01/15 12:23:18;;;;;;;27.40;9.27;;;6.00;99.90;;;;;;10303139;28;20208;-80
2022/01/15 12:28:40;;;;;;;13.57;5.23;;;5.80;99.90;;;;;;10317536;28;20214;-84
2022/01/15 12:34:02;;;;;;;15.50;4.27;;;5.70;99.90;;;;;;10306016;28;20252;-78
2022/01/15 12:39:32;;;;;;;14.73;3.83;;;5.90;99.90;;;;;;10310011;28;20198;-76
2022/01/15 12:44:54;;;;;;;16.20;3.87;;;5.80;99.90;;;;;;10298315;28;20204;-76
2022/01/15 12:50:17;;;;;;;30.13;9.47;;;5.40;99.90;;;;;;10290434;28;20300;-76
2022/01/15 12:55:40;;;;;;;18.10;5.73;;;5.10;99.90;;;;;;10303535;28;20516;-76
2022/01/15 13:01:03;;;;;;;33.63;13.13;;;4.70;99.90;;;;;;10294818;28;20224;-78
2022/01/15 13:06:25;;;;;;;30.67;12.37;;;4.50;99.90;;;;;;10305627;28;20288;-77
2022/01/15 13:11:58;;;;;;;18.93;5.93;;;4.50;99.90;;;;;;10299082;28;20237;-76
2022/01/15 13:17:25;;;;;;;12.37;4.07;;;4.40;99.90;;;;;;10297911;28;20229;-77
2022/01/15 13:22:51;;;;;;;13.37;3.63;;;4.20;99.90;;;;;;10296663;28;20204;-77
2022/01/15 13:28:14;;;;;;;6.43;2.70;;;4.20;99.90;;;;;;10295995;28;20201;-77
2022/01/15 13:33:40;;;;;;;14.57;3.20;;;4.10;99.90;;;;;;10311055;28;20296;-76
2022/01/15 13:39:03;;;;;;;16.13;4.50;;;4.10;99.90;;;;;;10297396;28;20256;-77
2022/01/15 13:44:32;;;;;;;12.33;4.53;;;3.90;99.90;;;;;;10322514;28;20207;-77
2022/01/15 13:55:34;;;;;;;14.07;5.57;;;3.80;99.90;;;;;;10314229;28;20191;-77
2022/01/15 14:00:57;;;;;;;13.67;5.80;;;3.60;99.90;;;;;;10320257;28;20192;-84
2022/01/15 14:06:21;;;;;;;9.73;4.87;;;3.50;99.90;;;;;;10298165;28;20239;-78
2022/01/15 14:12:02;;;;;;;45.10;9.10;;;3.30;99.90;;;;;;10302041;28;20234;-84
2022/01/15 14:17:26;;;;;;;18.93;6.10;;;3.30;99.90;;;;;;10319310;28;20555;-88
2022/01/15 14:22:50;;;;;;;21.33;6.47;;;3.20;99.90;;;;;;10315014;28;20231;-86
2022/01/15 14:28:16;;;;;;;17.63;5.53;;;3.20;99.90;;;;;;10305687;28;20259;-80
2022/01/15 14:33:53;;;;;;;13.43;5.50;;;3.00;99.90;;;;;;10313416;28;20270;-82
2022/01/15 14:39:17;;;;;;;18.00;5.17;;;2.90;99.90;;;;;;10317377;28;20539;-77
2022/01/15 14:44:38;;;;;;;13.80;5.90;;;2.80;99.90;;;;;;10315400;28;20218;-79
2022/01/15 14:50:02;;;;;;;15.03;5.90;;;2.70;99.90;;;;;;10327850;28;20242;-81
2022/01/15 14:55:24;;;;;;;17.50;7.70;;;2.70;99.90;;;;;;10315113;28;20199;-84
2022/01/15 15:00:49;;;;;;;32.80;11.53;;;2.50;99.90;;;;;;10313655;28;20233;-80
2022/01/15 15:06:12;;;;;;;40.43;14.37;;;2.50;99.90;;;;;;10313509;28;20459;-80
2022/01/15 15:11:35;;;;;;;167.47;77.73;;;2.40;99.90;;;;;;10297458;28;20232;-76
2022/01/15 15:16:57;;;;;;;200.63;92.97;;;2.30;99.90;;;;;;10307051;28;20195;-85
2022/01/15 15:22:20;;;;;;;142.80;60.63;;;2.20;99.90;;;;;;10305430;28;20194;-86
2022/01/15 15:27:44;;;;;;;79.93;31.27;;;2.20;99.90;;;;;;10315634;28;20206;-87
2022/01/15 15:33:05;;;;;;;140.27;49.87;;;2.10;99.90;;;;;;10330563;28;20226;-91
2022/01/15 15:38:29;;;;;;;97.03;35.53;;;2.00;99.90;;;;;;10313741;28;20266;-90
2022/01/15 15:43:53;;;;;;;104.00;34.47;;;2.00;99.90;;;;;;10307209;28;20229;-88
2022/01/15 15:49:18;;;;;;;54.13;21.43;;;1.90;99.90;;;;;;10331862;28;20448;-88
2022/01/15 15:54:40;;;;;;;49.80;18.33;;;1.90;99.90;;;;;;10316856;28;20203;-87
2022/01/15 16:00:03;;;;;;;47.47;19.80;;;1.80;99.90;;;;;;10312565;28;20195;-81
2022/01/15 16:05:41;;;;;;;48.83;19.63;;;1.80;99.90;;;;;;10332476;28;20226;-84
2022/01/15 16:11:03;;;;;;;56.90;22.40;;;1.80;99.90;;;;;;10274938;28;20250;-92
2022/01/15 16:16:26;;;;;;;148.33;67.37;;;1.80;99.90;;;;;;10309682;28;20199;-78
2022/01/15 16:21:49;;;;;;;70.90;31.17;;;1.80;99.90;;;;;;10307221;28;20198;-90
2022/01/15 16:27:12;;;;;;;36.83;18.97;;;1.80;99.90;;;;;;10290042;28;20191;-78
2022/01/15 16:32:33;;;;;;;33.60;14.03;;;1.80;99.90;;;;;;10295201;28;20218;-80
2022/01/15 16:37:56;;;;;;;24.97;9.37;;;1.80;99.90;;;;;;10309786;28;20194;-82
2022/01/15 16:43:18;;;;;;;20.50;7.27;;;1.70;99.90;;;;;;10315430;28;20203;-78
2022/01/15 16:48:40;;;;;;;22.77;8.90;;;1.70;99.90;;;;;;10314396;28;20206;-80
2022/01/15 16:54:03;;;;;;;19.77;7.00;;;1.70;99.90;;;;;;10317345;23;20214;-78
2022/01/15 17:05:24;;;;;;;12.90;6.13;;;1.70;99.90;;;;;;10075536;24;20251;-80
2022/01/15 17:10:46;;;;;;;14.57;5.30;;;1.70;99.90;;;;;;9966202;29;20467;-77
2022/01/15 17:16:34;;;;;;;18.03;6.40;;;1.70;99.90;;;;;;10463248;24;21444;31
2022/01/15 17:22:08;;;;;;;30.93;10.00;;;1.60;99.90;;;;;;9881073;30;20573;-78
2022/01/15 17:27:30;;;;;;;45.70;13.17;;;1.70;99.90;;;;;;9883834;30;20399;-78
2022/01/15 17:32:53;;;;;;;42.50;13.10;;;1.70;99.90;;;;;;9886036;30;20233;-76
2022/01/15 17:44:31;;;;;;;31.23;9.23;;;1.60;99.90;;;;;;10878664;24;21031;31
2022/01/15 17:49:53;;;;;;;32.85;8.85;;;1.50;99.90;;;;;;10289272;24;21458;-78
2022/01/15 18:01:14;;;;;;;24.53;9.23;;;1.50;99.90;;;;;;10300056;24;20223;-79
2022/01/15 18:06:36;;;;;;;27.10;10.63;;;1.50;99.90;;;;;;9964508;29;20444;-78
2022/01/15 18:11:59;;;;;;;28.43;9.07;;;1.50;99.90;;;;;;9963572;29;20232;-79
2022/01/15 18:17:47;;;;;;;18.53;6.63;;;1.40;99.90;;;;;;9946955;29;20209;-78
2022/01/15 18:23:34;;;;;;;16.67;6.80;;;1.40;99.90;;;;;;10238247;24;21304;31
2022/01/15 18:28:56;;;;;;;22.03;5.83;;;1.40;99.90;;;;;;11061127;24;20236;-79
2022/01/15 18:34:20;;;;;;;26.03;8.83;;;1.40;99.90;;;;;;10203162;24;20503;-78
2022/01/15 18:39:42;;;;;;;20.80;9.13;;;1.40;99.90;;;;;;9972349;29;20596;-78
2022/01/15 18:45:06;;;;;;;27.90;10.03;;;1.40;99.90;;;;;;9958940;29;20212;-80
2022/01/15 18:50:30;;;;;;;27.63;9.37;;;1.40;99.90;;;;;;10911757;24;20601;-83
2022/01/15 18:55:52;;;;;;;39.20;12.20;;;1.40;99.90;;;;;;10038271;24;20418;-76
2022/01/15 19:07:14;;;;;;;48.03;16.63;;;1.40;99.90;;;;;;10626110;24;20489;-86
2022/01/15 19:12:37;;;;;;;56.23;18.43;;;1.40;99.90;;;;;;10020851;24;20237;-78
2022/01/15 19:18:01;;;;;;;82.47;30.93;;;1.40;99.90;;;;;;10335329;24;20255;31
2022/01/15 19:23:23;;;;;;;78.57;27.73;;;1.30;99.90;;;;;;10140241;24;20247;-80
2022/01/15 19:28:45;;;;;;;44.53;16.23;;;1.40;99.90;;;;;;9993180;29;20389;-79
2022/01/15 19:34:10;;;;;;;52.80;17.80;;;1.40;99.90;;;;;;10319076;24;20481;-78
2022/01/15 19:39:32;;;;;;;53.23;20.87;;;1.40;99.90;;;;;;10336918;24;21207;-79
2022/01/15 19:44:54;;;;;;;42.77;15.63;;;1.30;99.90;;;;;;9980872;29;20208;-78
2022/01/15 19:50:18;;;;;;;34.80;14.10;;;1.40;99.90;;;;;;10350473;24;20254;-87
2022/01/15 19:55:42;;;;;;;36.67;13.40;;;1.40;99.90;;;;;;10014213;29;20232;-78
2022/01/15 20:01:05;;;;;;;22.73;9.63;;;1.40;99.90;;;;;;10012534;29;20207;-83
2022/01/15 20:06:27;;;;;;;31.17;10.67;;;1.40;99.90;;;;;;9971374;29;20208;-83
2022/01/15 20:11:48;;;;;;;26.60;10.13;;;1.40;99.90;;;;;;9960300;29;20310;-78
2022/01/15 20:17:22;;;;;;;24.63;10.00;;;1.30;99.90;;;;;;9963799;29;20201;-87
2022/01/15 20:22:44;;;;;;;24.17;9.13;;;1.30;99.90;;;;;;9975266;29;20507;-83
2022/01/15 20:28:06;;;;;;;24.77;12.00;;;1.30;99.90;;;;;;9981921;24;20458;-88
2022/01/15 20:33:30;;;;;;;27.93;10.50;;;1.30;99.90;;;;;;9996854;29;20479;-88
2022/01/15 20:38:53;;;;;;;23.60;9.27;;;1.30;99.90;;;;;;9998386;29;20203;-79
2022/01/15 20:44:19;;;;;;;19.40;8.40;;;1.20;99.90;;;;;;9999878;29;20235;-87
2022/01/15 20:49:41;;;;;;;18.27;8.70;;;1.20;99.90;;;;;;10000524;29;20206;-87
2022/01/15 20:55:04;;;;;;;25.63;9.97;;;1.10;99.90;;;;;;10014877;29;20271;-83
2022/01/15 21:00:28;;;;;;;24.20;9.47;;;1.10;99.90;;;;;;9994379;29;20215;-85
2022/01/15 21:05:51;;;;;;;22.87;7.97;;;1.00;99.90;;;;;;9996846;29;20468;-79
2022/01/15 21:11:14;;;;;;;18.40;8.17;;;1.00;99.90;;;;;;9991271;29;20242;-79
2022/01/15 21:16:36;;;;;;;18.40;7.57;;;0.90;99.90;;;;;;10007439;29;20202;-82
2022/01/15 21:21:58;;;;;;;24.80;7.53;;;0.80;99.90;;;;;;9996305;29;20212;-82
2022/01/15 21:27:20;;;;;;;15.23;7.10;;;0.90;99.90;;;;;;9993270;29;20243;-78
2022/01/15 21:32:42;;;;;;;16.47;7.30;;;0.80;99.90;;;;;;10002731;29;20295;-80
2022/01/15 21:38:04;;;;;;;24.37;9.00;;;0.80;99.90;;;;;;9993043;29;20231;-82
2022/01/15 21:43:30;;;;;;;18.23;8.00;;;0.90;99.90;;;;;;10005238;29;20210;-84
2022/01/15 21:48:53;;;;;;;15.10;7.17;;;0.90;99.90;;;;;;9992416;29;20207;-78
2022/01/15 21:54:16;;;;;;;14.47;7.30;;;0.90;99.90;;;;;;9990085;29;20255;-82
2022/01/15 21:59:41;;;;;;;21.73;9.17;;;0.90;99.90;;;;;;10011995;29;20203;-82
2022/01/15 22:05:05;;;;;;;18.73;7.97;;;0.80;99.90;;;;;;9983754;29;20219;-85
2022/01/15 22:10:28;;;;;;;21.13;7.87;;;0.80;99.90;;;;;;10012777;29;20242;-79
2022/01/15 22:15:52;;;;;;;20.27;7.93;;;0.80;99.90;;;;;;9984837;29;20231;-76
2022/01/15 22:21:17;;;;;;;31.60;12.53;;;0.70;99.90;;;;;;9995752;29;20577;-88
2022/01/15 22:26:40;;;;;;;24.27;9.57;;;0.70;99.90;;;;;;10012520;29;20251;-86
2022/01/15 22:32:05;;;;;;;17.63;8.40;;;0.70;99.90;;;;;;10012294;29;20235;-88
2022/01/15 22:37:28;;;;;;;16.23;8.60;;;0.70;99.90;;;;;;10015421;29;20527;-77
2022/01/15 22:42:50;;;;;;;17.20;7.97;;;0.60;99.90;;;;;;9995521;29;20208;-83
2022/01/15 22:48:12;;;;;;;19.50;8.83;;;0.50;99.90;;;;;;10011306;29;20212;-87
2022/01/15 22:53:35;;;;;;;22.33;9.33;;;0.40;99.90;;;;;;9996099;29;20234;-83
2022/01/15 22:58:57;;;;;;;22.23;10.03;;;0.40;99.90;;;;;;10009219;29;20580;-83
2022/01/15 23:04:19;;;;;;;23.93;10.73;;;0.40;99.90;;;;;;10009851;29;20211;-85
2022/01/15 23:09:40;;;;;;;23.83;11.40;;;0.40;99.90;;;;;;9991429;29;20221;-80
2022/01/15 23:15:22;;;;;;;18.60;9.87;;;0.30;99.90;;;;;;10009346;29;20269;-82
2022/01/15 23:20:44;;;;;;;21.40;10.30;;;0.30;99.90;;;;;;10008855;29;20505;-79
2022/01/15 23:26:07;;;;;;;19.03;10.13;;;0.30;99.90;;;;;;9997370;29;20208;-78
2022/01/15 23:31:29;;;;;;;27.70;10.40;;;0.30;99.90;;;;;;10008687;29;20243;-80
2022/01/15 23:36:51;;;;;;;28.80;11.80;;;0.20;99.90;;;;;;9996176;29;20234;-79
2022/01/15 23:42:14;;;;;;;22.37;9.57;;;0.30;99.90;;;;;;9979523;29;20569;-84
2022/01/15 23:47:40;;;;;;;26.27;10.87;;;0.40;99.90;;;;;;9978847;29;20210;-83
2022/01/15 23:53:04;;;;;;;25.27;11.20;;;0.30;99.90;;;;;;9992015;29;20238;-85
2022/01/15 23:58:26;;;;;;;23.10;10.83;;;0.30;99.90;;;;;;9992122;29;20408;-77
